sensor_id;sensor_type;location;lat;lon;timestamp;P1;durP1;ratioP1;P2;durP2;ratioP2
70052;SDS011;57398;52.032;4.376;2022-08-19T00:02:16;12.75;;;6.80;;
70052;SDS011;57398;52.032;4.376;2022-08-19T00:04:43;14.93;;;6.60;;
70052;SDS011;57398;52.032;4.376;2022-08-19T00:07:14;12.93;;;6.57;;
70052;SDS011;57398;52.032;4.376;2022-08-19T00:09:42;12.40;;;6.85;;
70052;SDS011;57398;52.032;4.376;2022-08-19T00:12:10;14.05;;;6.35;;
70052;SDS011;57398;52.032;4.376;2022-08-19T00:14:38;12.55;;;6.45;;
70052;SDS011;57398;52.032;4.376;2022-08-19T00:17:07;13.57;;;6.70;;
70052;SDS011;57398;52.032;4.376;2022-08-19T00:19:35;11.43;;;6.38;;
70052;SDS011;57398;52.032;4.376;2022-08-19T00:22:02;13.30;;;6.38;;
70052;SDS011;57398;52.032;4.376;2022-08-19T00:24:31;12.20;;;6.38;;
70052;SDS011;57398;52.032;4.376;2022-08-19T00:27:02;13.05;;;6.28;;
70052;SDS011;57398;52.032;4.376;2022-08-19T00:29:49;12.13;;;6.33;;
70052;SDS011;57398;52.032;4.376;2022-08-19T00:32:18;15.80;;;6.50;;
70052;SDS011;57398;52.032;4.376;2022-08-19T00:34:45;14.02;;;6.40;;
70052;SDS011;57398;52.032;4.376;2022-08-19T00:37:13;12.50;;;6.50;;
70052;SDS011;57398;52.032;4.376;2022-08-19T00:39:40;12.80;;;6.32;;
70052;SDS011;57398;52.032;4.376;2022-08-19T00:42:09;12.83;;;6.70;;
70052;SDS011;57398;52.032;4.376;2022-08-19T00:44:41;15.30;;;6.80;;
70052;SDS011;57398;52.032;4.376;2022-08-19T00:47:09;12.80;;;6.97;;
70052;SDS011;57398;52.032;4.376;2022-08-19T00:49:41;16.58;;;7.60;;
70052;SDS011;57398;52.032;4.376;2022-08-19T00:52:12;14.50;;;7.28;;
70052;SDS011;57398;52.032;4.376;2022-08-19T00:54:41;14.07;;;7.07;;
70052;SDS011;57398;52.032;4.376;2022-08-19T00:57:10;14.13;;;6.95;;
70052;SDS011;57398;52.032;4.376;2022-08-19T00:59:39;14.43;;;6.20;;
70052;SDS011;57398;52.032;4.376;2022-08-19T01:02:27;11.88;;;6.68;;
70052;SDS011;57398;52.032;4.376;2022-08-19T01:04:55;12.30;;;6.72;;
70052;SDS011;57398;52.032;4.376;2022-08-19T01:07:23;13.20;;;6.60;;
70052;SDS011;57398;52.032;4.376;2022-08-19T01:09:50;14.85;;;6.72;;
70052;SDS011;57398;52.032;4.376;2022-08-19T01:12:19;15.43;;;7.15;;
70052;SDS011;57398;52.032;4.376;2022-08-19T01:14:47;14.38;;;6.78;;
70052;SDS011;57398;52.032;4.376;2022-08-19T01:17:16;14.65;;;7.30;;
70052;SDS011;57398;52.032;4.376;2022-08-19T01:19:44;13.83;;;7.30;;
70052;SDS011;57398;52.032;4.376;2022-08-19T01:22:14;15.23;;;7.38;;
70052;SDS011;57398;52.032;4.376;2022-08-19T01:24:53;17.50;;;8.05;;
70052;SDS011;57398;52.032;4.376;2022-08-19T01:27:21;15.85;;;8.05;;
70052;SDS011;57398;52.032;4.376;2022-08-19T01:29:49;19.13;;;8.55;;
70052;SDS011;57398;52.032;4.376;2022-08-19T01:32:17;19.77;;;8.70;;
70052;SDS011;57398;52.032;4.376;2022-08-19T01:34:59;20.35;;;8.90;;
70052;SDS011;57398;52.032;4.376;2022-08-19T01:37:28;17.80;;;8.15;;
70052;SDS011;57398;52.032;4.376;2022-08-19T01:39:57;18.30;;;8.75;;
70052;SDS011;57398;52.032;4.376;2022-08-19T01:42:25;18.83;;;8.05;;
70052;SDS011;57398;52.032;4.376;2022-08-19T01:44:55;20.70;;;8.70;;
70052;SDS011;57398;52.032;4.376;2022-08-19T01:47:23;16.80;;;8.07;;
70052;SDS011;57398;52.032;4.376;2022-08-19T01:49:50;19.05;;;8.93;;
70052;SDS011;57398;52.032;4.376;2022-08-19T01:52:18;22.27;;;9.23;;
70052;SDS011;57398;52.032;4.376;2022-08-19T01:54:45;23.05;;;9.90;;
70052;SDS011;57398;52.032;4.376;2022-08-19T01:57:14;25.83;;;10.80;;
70052;SDS011;57398;52.032;4.376;2022-08-19T01:59:42;24.10;;;10.45;;
70052;SDS011;57398;52.032;4.376;2022-08-19T02:02:10;23.90;;;10.70;;
70052;SDS011;57398;52.032;4.376;2022-08-19T02:04:37;27.23;;;11.43;;
70052;SDS011;57398;52.032;4.376;2022-08-19T02:07:05;22.90;;;9.95;;
70052;SDS011;57398;52.032;4.376;2022-08-19T02:09:34;25.63;;;10.87;;
70052;SDS011;57398;52.032;4.376;2022-08-19T02:12:02;28.08;;;12.43;;
70052;SDS011;57398;52.032;4.376;2022-08-19T02:14:31;34.42;;;13.75;;
70052;SDS011;57398;52.032;4.376;2022-08-19T02:17:00;39.88;;;14.88;;
70052;SDS011;57398;52.032;4.376;2022-08-19T02:19:28;45.47;;;17.80;;
70052;SDS011;57398;52.032;4.376;2022-08-19T02:21:58;49.13;;;17.50;;
70052;SDS011;57398;52.032;4.376;2022-08-19T02:24:26;52.95;;;19.15;;
70052;SDS011;57398;52.032;4.376;2022-08-19T02:26:54;51.55;;;18.25;;
70052;SDS011;57398;52.032;4.376;2022-08-19T02:29:21;55.10;;;19.50;;
70052;SDS011;57398;52.032;4.376;2022-08-19T02:31:50;66.30;;;20.05;;
70052;SDS011;57398;52.032;4.376;2022-08-19T02:34:18;57.07;;;18.97;;
70052;SDS011;57398;52.032;4.376;2022-08-19T02:36:45;66.57;;;20.83;;
70052;SDS011;57398;52.032;4.376;2022-08-19T02:39:17;65.25;;;20.75;;
70052;SDS011;57398;52.032;4.376;2022-08-19T02:41:44;66.15;;;20.58;;
70052;SDS011;57398;52.032;4.376;2022-08-19T02:44:11;54.70;;;18.95;;
70052;SDS011;57398;52.032;4.376;2022-08-19T02:46:58;54.67;;;18.40;;
70052;SDS011;57398;52.032;4.376;2022-08-19T02:49:25;53.17;;;18.70;;
70052;SDS011;57398;52.032;4.376;2022-08-19T02:51:53;56.13;;;18.30;;
70052;SDS011;57398;52.032;4.376;2022-08-19T02:54:21;52.65;;;18.33;;
70052;SDS011;57398;52.032;4.376;2022-08-19T02:56:48;56.80;;;18.83;;
70052;SDS011;57398;52.032;4.376;2022-08-19T02:59:16;51.50;;;18.40;;
70052;SDS011;57398;52.032;4.376;2022-08-19T03:01:48;55.60;;;19.05;;
70052;SDS011;57398;52.032;4.376;2022-08-19T03:04:18;49.55;;;17.70;;
70052;SDS011;57398;52.032;4.376;2022-08-19T03:06:46;55.63;;;18.25;;
70052;SDS011;57398;52.032;4.376;2022-08-19T03:09:13;49.80;;;18.58;;
70052;SDS011;57398;52.032;4.376;2022-08-19T03:11:41;48.93;;;17.67;;
70052;SDS011;57398;52.032;4.376;2022-08-19T03:14:09;52.10;;;18.30;;
70052;SDS011;57398;52.032;4.376;2022-08-19T03:16:40;56.60;;;19.02;;
70052;SDS011;57398;52.032;4.376;2022-08-19T03:19:08;52.00;;;17.85;;
70052;SDS011;57398;52.032;4.376;2022-08-19T03:21:37;49.10;;;17.98;;
70052;SDS011;57398;52.032;4.376;2022-08-19T03:24:06;56.03;;;19.93;;
70052;SDS011;57398;52.032;4.376;2022-08-19T03:26:37;53.58;;;18.70;;
70052;SDS011;57398;52.032;4.376;2022-08-19T03:29:05;51.28;;;19.23;;
70052;SDS011;57398;52.032;4.376;2022-08-19T03:31:36;60.92;;;20.67;;
70052;SDS011;57398;52.032;4.376;2022-08-19T03:34:17;55.85;;;20.50;;
70052;SDS011;57398;52.032;4.376;2022-08-19T03:36:47;63.00;;;20.83;;
70052;SDS011;57398;52.032;4.376;2022-08-19T03:39:14;59.65;;;20.40;;
70052;SDS011;57398;52.032;4.376;2022-08-19T03:41:43;62.55;;;20.80;;
70052;SDS011;57398;52.032;4.376;2022-08-19T03:44:14;65.95;;;21.75;;
70052;SDS011;57398;52.032;4.376;2022-08-19T03:46:44;70.63;;;21.08;;
70052;SDS011;57398;52.032;4.376;2022-08-19T03:49:12;73.27;;;22.20;;
70052;SDS011;57398;52.032;4.376;2022-08-19T03:51:40;79.28;;;24.17;;
70052;SDS011;57398;52.032;4.376;2022-08-19T03:54:10;75.40;;;23.83;;
70052;SDS011;57398;52.032;4.376;2022-08-19T03:56:39;94.10;;;27.23;;
70052;SDS011;57398;52.032;4.376;2022-08-19T03:59:07;88.60;;;25.25;;
70052;SDS011;57398;52.032;4.376;2022-08-19T04:01:35;89.13;;;25.53;;
70052;SDS011;57398;52.032;4.376;2022-08-19T04:04:03;88.15;;;25.48;;
70052;SDS011;57398;52.032;4.376;2022-08-19T04:06:31;83.22;;;25.95;;
70052;SDS011;57398;52.032;4.376;2022-08-19T04:09:01;90.97;;;27.15;;
70052;SDS011;57398;52.032;4.376;2022-08-19T04:11:33;84.13;;;26.27;;
70052;SDS011;57398;52.032;4.376;2022-08-19T04:14:10;90.07;;;26.70;;
70052;SDS011;57398;52.032;4.376;2022-08-19T04:16:37;85.18;;;26.10;;
70052;SDS011;57398;52.032;4.376;2022-08-19T04:19:05;85.13;;;26.17;;
70052;SDS011;57398;52.032;4.376;2022-08-19T04:21:33;86.38;;;26.52;;
70052;SDS011;57398;52.032;4.376;2022-08-19T04:24:00;83.70;;;25.95;;
70052;SDS011;57398;52.032;4.376;2022-08-19T04:26:31;80.60;;;27.20;;
70052;SDS011;57398;52.032;4.376;2022-08-19T04:28:59;86.20;;;26.60;;
70052;SDS011;57398;52.032;4.376;2022-08-19T04:31:27;77.65;;;24.95;;
70052;SDS011;57398;52.032;4.376;2022-08-19T04:33:56;71.45;;;23.90;;
70052;SDS011;57398;52.032;4.376;2022-08-19T04:36:26;76.00;;;25.48;;
70052;SDS011;57398;52.032;4.376;2022-08-19T04:38:54;72.20;;;23.93;;
70052;SDS011;57398;52.032;4.376;2022-08-19T04:41:22;70.45;;;22.80;;
70052;SDS011;57398;52.032;4.376;2022-08-19T04:44:08;70.78;;;23.70;;
70052;SDS011;57398;52.032;4.376;2022-08-19T04:46:36;64.32;;;22.70;;
70052;SDS011;57398;52.032;4.376;2022-08-19T04:49:16;66.68;;;22.83;;
70052;SDS011;57398;52.032;4.376;2022-08-19T04:51:45;62.53;;;21.40;;
70052;SDS011;57398;52.032;4.376;2022-08-19T04:54:13;58.17;;;21.25;;
70052;SDS011;57398;52.032;4.376;2022-08-19T04:56:58;63.90;;;21.20;;
70052;SDS011;57398;52.032;4.376;2022-08-19T04:59:27;60.45;;;20.05;;
70052;SDS011;57398;52.032;4.376;2022-08-19T05:01:55;63.65;;;19.83;;
70052;SDS011;57398;52.032;4.376;2022-08-19T05:04:22;57.27;;;19.27;;
70052;SDS011;57398;52.032;4.376;2022-08-19T05:06:50;53.83;;;20.30;;
70052;SDS011;57398;52.032;4.376;2022-08-19T05:09:24;51.78;;;19.55;;
70052;SDS011;57398;52.032;4.376;2022-08-19T05:11:53;49.88;;;20.00;;
70052;SDS011;57398;52.032;4.376;2022-08-19T05:14:20;55.15;;;19.45;;
70052;SDS011;57398;52.032;4.376;2022-08-19T05:16:50;51.40;;;19.33;;
70052;SDS011;57398;52.032;4.376;2022-08-19T05:19:37;50.72;;;18.92;;
70052;SDS011;57398;52.032;4.376;2022-08-19T05:22:22;51.85;;;18.70;;
70052;SDS011;57398;52.032;4.376;2022-08-19T05:25:02;55.03;;;19.80;;
70052;SDS011;57398;52.032;4.376;2022-08-19T05:27:38;49.92;;;18.25;;
70052;SDS011;57398;52.032;4.376;2022-08-19T05:30:06;48.33;;;17.20;;
70052;SDS011;57398;52.032;4.376;2022-08-19T05:32:35;48.72;;;18.90;;
70052;SDS011;57398;52.032;4.376;2022-08-19T05:35:03;44.75;;;17.92;;
70052;SDS011;57398;52.032;4.376;2022-08-19T05:37:30;49.28;;;18.45;;
70052;SDS011;57398;52.032;4.376;2022-08-19T05:39:58;44.38;;;17.23;;
70052;SDS011;57398;52.032;4.376;2022-08-19T05:42:25;47.03;;;17.80;;
70052;SDS011;57398;52.032;4.376;2022-08-19T05:44:53;44.40;;;16.95;;
70052;SDS011;57398;52.032;4.376;2022-08-19T05:47:22;46.95;;;17.65;;
70052;SDS011;57398;52.032;4.376;2022-08-19T05:49:50;42.03;;;17.10;;
70052;SDS011;57398;52.032;4.376;2022-08-19T05:52:18;44.05;;;17.45;;
70052;SDS011;57398;52.032;4.376;2022-08-19T05:54:51;42.60;;;16.43;;
70052;SDS011;57398;52.032;4.376;2022-08-19T05:57:22;38.58;;;15.52;;
70052;SDS011;57398;52.032;4.376;2022-08-19T05:59:49;38.58;;;15.20;;
70052;SDS011;57398;52.032;4.376;2022-08-19T06:02:23;37.70;;;15.20;;
70052;SDS011;57398;52.032;4.376;2022-08-19T06:04:52;38.25;;;15.35;;
70052;SDS011;57398;52.032;4.376;2022-08-19T06:07:20;37.70;;;14.80;;
70052;SDS011;57398;52.032;4.376;2022-08-19T06:09:47;37.38;;;14.88;;
70052;SDS011;57398;52.032;4.376;2022-08-19T06:12:26;38.25;;;15.45;;
70052;SDS011;57398;52.032;4.376;2022-08-19T06:14:56;36.15;;;14.40;;
70052;SDS011;57398;52.032;4.376;2022-08-19T06:17:26;40.80;;;15.18;;
70052;SDS011;57398;52.032;4.376;2022-08-19T06:19:58;37.30;;;15.57;;
70052;SDS011;57398;52.032;4.376;2022-08-19T06:22:26;39.17;;;15.10;;
70052;SDS011;57398;52.032;4.376;2022-08-19T06:24:53;40.42;;;15.95;;
70052;SDS011;57398;52.032;4.376;2022-08-19T06:27:21;33.92;;;14.95;;
70052;SDS011;57398;52.032;4.376;2022-08-19T06:29:49;33.88;;;14.25;;
70052;SDS011;57398;52.032;4.376;2022-08-19T06:32:17;32.43;;;14.30;;
70052;SDS011;57398;52.032;4.376;2022-08-19T06:34:44;33.15;;;14.13;;
70052;SDS011;57398;52.032;4.376;2022-08-19T06:37:13;36.58;;;14.90;;
70052;SDS011;57398;52.032;4.376;2022-08-19T06:39:42;30.48;;;13.82;;
70052;SDS011;57398;52.032;4.376;2022-08-19T06:42:10;30.90;;;13.65;;
70052;SDS011;57398;52.032;4.376;2022-08-19T06:44:40;29.97;;;13.13;;
70052;SDS011;57398;52.032;4.376;2022-08-19T06:47:14;28.83;;;12.57;;
70052;SDS011;57398;52.032;4.376;2022-08-19T06:49:50;29.40;;;13.85;;
70052;SDS011;57398;52.032;4.376;2022-08-19T06:52:19;28.27;;;12.38;;
70052;SDS011;57398;52.032;4.376;2022-08-19T06:54:50;26.85;;;12.90;;
70052;SDS011;57398;52.032;4.376;2022-08-19T06:57:22;27.37;;;13.53;;
70052;SDS011;57398;52.032;4.376;2022-08-19T06:59:49;29.35;;;12.50;;
70052;SDS011;57398;52.032;4.376;2022-08-19T07:02:17;28.80;;;12.95;;
70052;SDS011;57398;52.032;4.376;2022-08-19T07:04:45;29.50;;;12.68;;
70052;SDS011;57398;52.032;4.376;2022-08-19T07:07:13;28.00;;;13.57;;
70052;SDS011;57398;52.032;4.376;2022-08-19T07:09:48;30.83;;;12.73;;
70052;SDS011;57398;52.032;4.376;2022-08-19T07:12:25;26.75;;;12.13;;
70052;SDS011;57398;52.032;4.376;2022-08-19T07:14:54;25.95;;;11.48;;
70052;SDS011;57398;52.032;4.376;2022-08-19T07:17:22;30.00;;;12.50;;
70052;SDS011;57398;52.032;4.376;2022-08-19T07:19:50;31.98;;;13.07;;
70052;SDS011;57398;52.032;4.376;2022-08-19T07:22:20;27.80;;;12.10;;
70052;SDS011;57398;52.032;4.376;2022-08-19T07:24:50;26.70;;;11.73;;
70052;SDS011;57398;52.032;4.376;2022-08-19T07:27:18;23.20;;;11.73;;
70052;SDS011;57398;52.032;4.376;2022-08-19T07:29:50;24.52;;;11.57;;
70052;SDS011;57398;52.032;4.376;2022-08-19T07:32:22;25.10;;;11.40;;
70052;SDS011;57398;52.032;4.376;2022-08-19T07:34:52;25.73;;;11.33;;
70052;SDS011;57398;52.032;4.376;2022-08-19T07:37:19;25.00;;;11.35;;
70052;SDS011;57398;52.032;4.376;2022-08-19T07:39:47;22.98;;;10.65;;
70052;SDS011;57398;52.032;4.376;2022-08-19T07:42:17;24.10;;;11.27;;
70052;SDS011;57398;52.032;4.376;2022-08-19T07:44:47;24.95;;;11.15;;
70052;SDS011;57398;52.032;4.376;2022-08-19T07:47:16;23.67;;;10.93;;
70052;SDS011;57398;52.032;4.376;2022-08-19T07:50:05;20.35;;;10.15;;
70052;SDS011;57398;52.032;4.376;2022-08-19T07:52:36;21.73;;;10.48;;
70052;SDS011;57398;52.032;4.376;2022-08-19T07:55:05;24.02;;;11.18;;
70052;SDS011;57398;52.032;4.376;2022-08-19T07:57:54;20.35;;;10.75;;
70052;SDS011;57398;52.032;4.376;2022-08-19T08:00:22;23.00;;;9.80;;
70052;SDS011;57398;52.032;4.376;2022-08-19T08:02:50;19.15;;;9.35;;
70052;SDS011;57398;52.032;4.376;2022-08-19T08:05:21;17.30;;;8.60;;
70052;SDS011;57398;52.032;4.376;2022-08-19T08:08:08;16.15;;;7.60;;
70052;SDS011;57398;52.032;4.376;2022-08-19T08:11:12;14.93;;;6.50;;
70052;SDS011;57398;52.032;4.376;2022-08-19T08:13:44;13.00;;;5.90;;
70052;SDS011;57398;52.032;4.376;2022-08-19T08:16:25;15.48;;;5.90;;
70052;SDS011;57398;52.032;4.376;2022-08-19T08:18:57;12.80;;;6.15;;
70052;SDS011;57398;52.032;4.376;2022-08-19T08:21:26;11.50;;;5.60;;
70052;SDS011;57398;52.032;4.376;2022-08-19T08:23:54;12.65;;;5.78;;
70052;SDS011;57398;52.032;4.376;2022-08-19T08:26:22;11.70;;;5.87;;
70052;SDS011;57398;52.032;4.376;2022-08-19T08:28:52;12.43;;;5.60;;
70052;SDS011;57398;52.032;4.376;2022-08-19T08:31:19;9.25;;;4.78;;
70052;SDS011;57398;52.032;4.376;2022-08-19T08:33:47;10.90;;;5.35;;
70052;SDS011;57398;52.032;4.376;2022-08-19T08:36:15;10.57;;;5.50;;
70052;SDS011;57398;52.032;4.376;2022-08-19T08:38:43;13.27;;;5.57;;
70052;SDS011;57398;52.032;4.376;2022-08-19T08:41:13;12.95;;;5.45;;
70052;SDS011;57398;52.032;4.376;2022-08-19T08:43:46;10.80;;;5.20;;
70052;SDS011;57398;52.032;4.376;2022-08-19T08:46:17;12.52;;;4.97;;
70052;SDS011;57398;52.032;4.376;2022-08-19T08:48:58;12.45;;;5.43;;
70052;SDS011;57398;52.032;4.376;2022-08-19T08:51:28;11.83;;;5.17;;
70052;SDS011;57398;52.032;4.376;2022-08-19T08:54:00;10.00;;;4.90;;
70052;SDS011;57398;52.032;4.376;2022-08-19T08:56:28;9.15;;;4.95;;
70052;SDS011;57398;52.032;4.376;2022-08-19T08:58:58;12.70;;;5.43;;
70052;SDS011;57398;52.032;4.376;2022-08-19T09:01:27;11.63;;;5.40;;
70052;SDS011;57398;52.032;4.376;2022-08-19T09:03:56;9.43;;;4.60;;
70052;SDS011;57398;52.032;4.376;2022-08-19T09:06:29;9.75;;;4.75;;
70052;SDS011;57398;52.032;4.376;2022-08-19T09:09:00;11.15;;;4.95;;
70052;SDS011;57398;52.032;4.376;2022-08-19T09:11:41;11.73;;;4.70;;
70052;SDS011;57398;52.032;4.376;2022-08-19T09:14:14;10.07;;;4.90;;
70052;SDS011;57398;52.032;4.376;2022-08-19T09:17:07;9.20;;;4.30;;
70052;SDS011;57398;52.032;4.376;2022-08-19T09:19:35;9.10;;;4.22;;
70052;SDS011;57398;52.032;4.376;2022-08-19T09:22:05;9.25;;;4.15;;
70052;SDS011;57398;52.032;4.376;2022-08-19T09:24:35;10.32;;;4.63;;
70052;SDS011;57398;52.032;4.376;2022-08-19T09:27:04;10.30;;;4.30;;
70052;SDS011;57398;52.032;4.376;2022-08-19T09:29:43;9.13;;;4.00;;
70052;SDS011;57398;52.032;4.376;2022-08-19T09:32:13;13.35;;;4.13;;
70052;SDS011;57398;52.032;4.376;2022-08-19T09:34:52;7.72;;;4.30;;
70052;SDS011;57398;52.032;4.376;2022-08-19T09:37:20;10.02;;;4.65;;
70052;SDS011;57398;52.032;4.376;2022-08-19T09:39:50;10.50;;;4.07;;
70052;SDS011;57398;52.032;4.376;2022-08-19T09:42:19;9.33;;;3.50;;
70052;SDS011;57398;52.032;4.376;2022-08-19T09:44:55;6.60;;;3.33;;
70052;SDS011;57398;52.032;4.376;2022-08-19T09:47:27;7.00;;;3.30;;
70052;SDS011;57398;52.032;4.376;2022-08-19T09:49:57;7.15;;;3.35;;
70052;SDS011;57398;52.032;4.376;2022-08-19T09:52:26;7.78;;;3.00;;
70052;SDS011;57398;52.032;4.376;2022-08-19T09:54:58;6.40;;;3.00;;
70052;SDS011;57398;52.032;4.376;2022-08-19T09:57:32;7.85;;;3.50;;
70052;SDS011;57398;52.032;4.376;2022-08-19T10:00:00;7.95;;;3.50;;
70052;SDS011;57398;52.032;4.376;2022-08-19T10:02:29;8.85;;;3.70;;
70052;SDS011;57398;52.032;4.376;2022-08-19T10:04:56;7.60;;;3.20;;
70052;SDS011;57398;52.032;4.376;2022-08-19T10:07:48;7.90;;;3.60;;
70052;SDS011;57398;52.032;4.376;2022-08-19T10:10:16;7.50;;;3.35;;
70052;SDS011;57398;52.032;4.376;2022-08-19T10:12:45;6.00;;;2.90;;
70052;SDS011;57398;52.032;4.376;2022-08-19T10:15:14;9.93;;;3.30;;
70052;SDS011;57398;52.032;4.376;2022-08-19T10:17:55;6.57;;;3.10;;
70052;SDS011;57398;52.032;4.376;2022-08-19T10:20:24;5.80;;;3.23;;
70052;SDS011;57398;52.032;4.376;2022-08-19T10:22:51;7.00;;;2.90;;
70052;SDS011;57398;52.032;4.376;2022-08-19T10:25:18;5.57;;;2.60;;
70052;SDS011;57398;52.032;4.376;2022-08-19T10:27:46;7.90;;;2.67;;
70052;SDS011;57398;52.032;4.376;2022-08-19T10:30:21;6.57;;;2.33;;
70052;SDS011;57398;52.032;4.376;2022-08-19T10:32:50;5.90;;;2.33;;
70052;SDS011;57398;52.032;4.376;2022-08-19T10:35:19;7.40;;;2.60;;
70052;SDS011;57398;52.032;4.376;2022-08-19T10:37:48;5.47;;;2.33;;
70052;SDS011;57398;52.032;4.376;2022-08-19T10:40:27;6.53;;;2.45;;
70052;SDS011;57398;52.032;4.376;2022-08-19T10:42:55;6.45;;;2.45;;
70052;SDS011;57398;52.032;4.376;2022-08-19T10:45:22;6.43;;;2.23;;
70052;SDS011;57398;52.032;4.376;2022-08-19T10:47:55;5.10;;;2.30;;
70052;SDS011;57398;52.032;4.376;2022-08-19T10:50:25;5.10;;;2.70;;
70052;SDS011;57398;52.032;4.376;2022-08-19T10:53:10;5.70;;;2.22;;
70052;SDS011;57398;52.032;4.376;2022-08-19T10:55:37;5.13;;;2.00;;
70052;SDS011;57398;52.032;4.376;2022-08-19T10:58:22;5.83;;;2.23;;
70052;SDS011;57398;52.032;4.376;2022-08-19T11:00:52;4.90;;;1.85;;
70052;SDS011;57398;52.032;4.376;2022-08-19T11:03:20;5.43;;;1.80;;
70052;SDS011;57398;52.032;4.376;2022-08-19T11:05:57;7.35;;;2.25;;
70052;SDS011;57398;52.032;4.376;2022-08-19T11:08:25;5.55;;;2.08;;
70052;SDS011;57398;52.032;4.376;2022-08-19T11:10:54;6.03;;;2.47;;
70052;SDS011;57398;52.032;4.376;2022-08-19T11:13:26;6.72;;;2.60;;
70052;SDS011;57398;52.032;4.376;2022-08-19T11:15:58;6.13;;;2.30;;
70052;SDS011;57398;52.032;4.376;2022-08-19T11:18:31;7.82;;;2.60;;
70052;SDS011;57398;52.032;4.376;2022-08-19T11:21:06;8.32;;;2.50;;
70052;SDS011;57398;52.032;4.376;2022-08-19T11:23:33;5.30;;;2.20;;
70052;SDS011;57398;52.032;4.376;2022-08-19T11:26:01;7.05;;;2.75;;
70052;SDS011;57398;52.032;4.376;2022-08-19T11:28:28;6.10;;;2.90;;
70052;SDS011;57398;52.032;4.376;2022-08-19T11:30:56;7.40;;;2.80;;
70052;SDS011;57398;52.032;4.376;2022-08-19T11:33:23;6.45;;;3.00;;
70052;SDS011;57398;52.032;4.376;2022-08-19T11:35:52;6.07;;;3.10;;
70052;SDS011;57398;52.032;4.376;2022-08-19T11:38:21;9.18;;;3.42;;
70052;SDS011;57398;52.032;4.376;2022-08-19T11:40:53;7.28;;;3.50;;
70052;SDS011;57398;52.032;4.376;2022-08-19T11:43:21;7.15;;;3.45;;
70052;SDS011;57398;52.032;4.376;2022-08-19T11:45:48;5.95;;;3.28;;
70052;SDS011;57398;52.032;4.376;2022-08-19T11:48:16;8.03;;;3.40;;
70052;SDS011;57398;52.032;4.376;2022-08-19T11:50:48;6.25;;;3.13;;
70052;SDS011;57398;52.032;4.376;2022-08-19T11:53:15;5.32;;;2.80;;
70052;SDS011;57398;52.032;4.376;2022-08-19T11:55:45;5.22;;;3.00;;
70052;SDS011;57398;52.032;4.376;2022-08-19T11:58:13;6.25;;;3.13;;
70052;SDS011;57398;52.032;4.376;2022-08-19T12:00:44;7.07;;;3.00;;
70052;SDS011;57398;52.032;4.376;2022-08-19T12:03:12;8.45;;;3.38;;
70052;SDS011;57398;52.032;4.376;2022-08-19T12:05:41;8.30;;;3.42;;
70052;SDS011;57398;52.032;4.376;2022-08-19T12:08:09;6.38;;;3.08;;
70052;SDS011;57398;52.032;4.376;2022-08-19T12:10:38;9.48;;;3.78;;
70052;SDS011;57398;52.032;4.376;2022-08-19T12:13:08;8.90;;;3.10;;
70052;SDS011;57398;52.032;4.376;2022-08-19T12:15:36;5.83;;;3.27;;
70052;SDS011;57398;52.032;4.376;2022-08-19T12:18:06;7.80;;;3.17;;
70052;SDS011;57398;52.032;4.376;2022-08-19T12:20:34;5.95;;;3.22;;
70052;SDS011;57398;52.032;4.376;2022-08-19T12:23:01;7.00;;;3.25;;
70052;SDS011;57398;52.032;4.376;2022-08-19T12:25:29;7.10;;;3.33;;
70052;SDS011;57398;52.032;4.376;2022-08-19T12:27:57;6.63;;;3.50;;
70052;SDS011;57398;52.032;4.376;2022-08-19T12:30:27;6.50;;;3.28;;
70052;SDS011;57398;52.032;4.376;2022-08-19T12:32:56;8.63;;;3.72;;
70052;SDS011;57398;52.032;4.376;2022-08-19T12:35:24;7.82;;;3.10;;
70052;SDS011;57398;52.032;4.376;2022-08-19T12:37:51;6.22;;;2.90;;
70052;SDS011;57398;52.032;4.376;2022-08-19T12:40:22;6.27;;;2.60;;
70052;SDS011;57398;52.032;4.376;2022-08-19T12:42:52;6.05;;;2.70;;
70052;SDS011;57398;52.032;4.376;2022-08-19T12:45:19;7.05;;;3.45;;
70052;SDS011;57398;52.032;4.376;2022-08-19T12:47:49;6.32;;;2.92;;
70052;SDS011;57398;52.032;4.376;2022-08-19T12:50:20;5.18;;;2.70;;
70052;SDS011;57398;52.032;4.376;2022-08-19T12:52:47;5.73;;;2.50;;
70052;SDS011;57398;52.032;4.376;2022-08-19T12:55:15;6.85;;;3.00;;
70052;SDS011;57398;52.032;4.376;2022-08-19T12:57:44;6.65;;;2.50;;
70052;SDS011;57398;52.032;4.376;2022-08-19T13:00:13;5.30;;;2.50;;
70052;SDS011;57398;52.032;4.376;2022-08-19T13:02:44;5.15;;;2.20;;
70052;SDS011;57398;52.032;4.376;2022-08-19T13:05:13;5.47;;;1.83;;
70052;SDS011;57398;52.032;4.376;2022-08-19T13:07:42;5.13;;;2.47;;
70052;SDS011;57398;52.032;4.376;2022-08-19T13:10:11;5.85;;;2.20;;
70052;SDS011;57398;52.032;4.376;2022-08-19T13:12:39;5.65;;;2.35;;
70052;SDS011;57398;52.032;4.376;2022-08-19T13:15:08;7.60;;;2.70;;
70052;SDS011;57398;52.032;4.376;2022-08-19T13:17:36;5.63;;;2.40;;
70052;SDS011;57398;52.032;4.376;2022-08-19T13:20:04;6.40;;;2.35;;
70052;SDS011;57398;52.032;4.376;2022-08-19T13:22:35;6.65;;;2.50;;
70052;SDS011;57398;52.032;4.376;2022-08-19T13:25:02;5.72;;;2.15;;
70052;SDS011;57398;52.032;4.376;2022-08-19T13:27:30;5.15;;;2.03;;
70052;SDS011;57398;52.032;4.376;2022-08-19T13:30:00;6.70;;;2.20;;
70052;SDS011;57398;52.032;4.376;2022-08-19T13:32:45;7.43;;;2.40;;
70052;SDS011;57398;52.032;4.376;2022-08-19T13:35:30;4.72;;;2.42;;
70052;SDS011;57398;52.032;4.376;2022-08-19T13:37:58;5.75;;;2.25;;
70052;SDS011;57398;52.032;4.376;2022-08-19T13:40:26;4.18;;;2.10;;
70052;SDS011;57398;52.032;4.376;2022-08-19T13:43:02;6.83;;;2.47;;
70052;SDS011;57398;52.032;4.376;2022-08-19T13:45:47;4.85;;;2.10;;
70052;SDS011;57398;52.032;4.376;2022-08-19T13:48:15;5.35;;;2.20;;
70052;SDS011;57398;52.032;4.376;2022-08-19T13:50:44;5.78;;;1.80;;
70052;SDS011;57398;52.032;4.376;2022-08-19T13:53:15;5.32;;;1.85;;
70052;SDS011;57398;52.032;4.376;2022-08-19T13:55:43;5.30;;;2.00;;
70052;SDS011;57398;52.032;4.376;2022-08-19T13:58:10;5.40;;;1.90;;
70052;SDS011;57398;52.032;4.376;2022-08-19T14:00:39;5.00;;;2.17;;
70052;SDS011;57398;52.032;4.376;2022-08-19T14:03:07;5.03;;;2.08;;
70052;SDS011;57398;52.032;4.376;2022-08-19T14:05:34;4.70;;;2.13;;
70052;SDS011;57398;52.032;4.376;2022-08-19T14:08:02;6.47;;;2.40;;
70052;SDS011;57398;52.032;4.376;2022-08-19T14:10:33;4.72;;;2.10;;
70052;SDS011;57398;52.032;4.376;2022-08-19T14:13:02;6.50;;;2.30;;
70052;SDS011;57398;52.032;4.376;2022-08-19T14:15:30;7.25;;;2.65;;
70052;SDS011;57398;52.032;4.376;2022-08-19T14:17:58;6.05;;;2.25;;
70052;SDS011;57398;52.032;4.376;2022-08-19T14:20:26;4.50;;;1.90;;
70052;SDS011;57398;52.032;4.376;2022-08-19T14:22:54;5.05;;;2.00;;
70052;SDS011;57398;52.032;4.376;2022-08-19T14:25:23;4.95;;;1.95;;
70052;SDS011;57398;52.032;4.376;2022-08-19T14:27:52;4.22;;;1.77;;
70052;SDS011;57398;52.032;4.376;2022-08-19T14:30:21;5.13;;;1.90;;
70052;SDS011;57398;52.032;4.376;2022-08-19T14:32:49;5.47;;;1.73;;
70052;SDS011;57398;52.032;4.376;2022-08-19T14:35:17;5.68;;;2.13;;
70052;SDS011;57398;52.032;4.376;2022-08-19T14:37:45;5.13;;;2.17;;
70052;SDS011;57398;52.032;4.376;2022-08-19T14:40:14;5.78;;;2.17;;
70052;SDS011;57398;52.032;4.376;2022-08-19T14:42:42;7.75;;;2.50;;
70052;SDS011;57398;52.032;4.376;2022-08-19T14:45:11;9.37;;;2.10;;
70052;SDS011;57398;52.032;4.376;2022-08-19T14:47:39;4.68;;;1.67;;
70052;SDS011;57398;52.032;4.376;2022-08-19T14:50:07;6.13;;;1.75;;
70052;SDS011;57398;52.032;4.376;2022-08-19T14:52:35;4.60;;;1.70;;